Aviation Digital Data Service (ADDS)

Output produced by METARs form (0651 UTC 25 July 2017)
found at http://aviationweather.gov/adds/metars/
 
KISO 250528Z 2506/2606 22004KT P6SM SCT008 
     FM251400 VRB03KT P6SM SKC 
     FM251800 VRB04KT P6SM VCTS BKN050CB 
     FM260200 VRB04KT P6SM SCT060 AMD LTD TO CLD VIS AND WIND